sensor_id;sensor_type;location;lat;lon;timestamp;temperature;humidity
52656;SHT85;35474;51.032;6.998;2023-02-26T00:00:47;0.71;72.50
52656;SHT85;35474;51.032;6.998;2023-02-26T00:03:23;0.72;72.54
52656;SHT85;35474;51.032;6.998;2023-02-26T00:05:53;0.82;72.26
52656;SHT85;35474;51.032;6.998;2023-02-26T00:08:27;0.96;71.62
52656;SHT85;35474;51.032;6.998;2023-02-26T00:10:58;0.93;71.92
52656;SHT85;35474;51.032;6.998;2023-02-26T00:13:27;0.97;71.74
52656;SHT85;35474;51.032;6.998;2023-02-26T00:15:55;1.09;71.69
52656;SHT85;35474;51.032;6.998;2023-02-26T00:18:34;1.07;71.85
52656;SHT85;35474;51.032;6.998;2023-02-26T00:21:01;1.03;72.04
52656;SHT85;35474;51.032;6.998;2023-02-26T00:23:28;1.03;72.06
52656;SHT85;35474;51.032;6.998;2023-02-26T00:25:56;1.12;71.87
52656;SHT85;35474;51.032;6.998;2023-02-26T00:28:23;1.12;71.72
52656;SHT85;35474;51.032;6.998;2023-02-26T00:30:50;1.12;72.01
52656;SHT85;35474;51.032;6.998;2023-02-26T00:33:19;1.17;71.84
52656;SHT85;35474;51.032;6.998;2023-02-26T00:35:50;1.16;71.62
52656;SHT85;35474;51.032;6.998;2023-02-26T00:38:23;1.26;71.53
52656;SHT85;35474;51.032;6.998;2023-02-26T00:40:55;1.26;71.35
52656;SHT85;35474;51.032;6.998;2023-02-26T00:43:23;1.22;71.35
52656;SHT85;35474;51.032;6.998;2023-02-26T00:46:26;1.31;71.21
52656;SHT85;35474;51.032;6.998;2023-02-26T00:51:46;1.23;71.11
52656;SHT85;35474;51.032;6.998;2023-02-26T00:54:23;1.19;71.28
52656;SHT85;35474;51.032;6.998;2023-02-26T00:56:53;1.09;71.56
52656;SHT85;35474;51.032;6.998;2023-02-26T01:03:37;0.86;72.59
52656;SHT85;35474;51.032;6.998;2023-02-26T01:06:08;0.64;73.11
52656;SHT85;35474;51.032;6.998;2023-02-26T01:08:45;0.64;73.78
52656;SHT85;35474;51.032;6.998;2023-02-26T01:11:39;0.52;73.76
52656;SHT85;35474;51.032;6.998;2023-02-26T01:14:26;0.31;74.65
52656;SHT85;35474;51.032;6.998;2023-02-26T01:19:56;0.24;75.25
52656;SHT85;35474;51.032;6.998;2023-02-26T01:22:36;0.06;75.36
52656;SHT85;35474;51.032;6.998;2023-02-26T01:25:22;-0.25;76.10
52656;SHT85;35474;51.032;6.998;2023-02-26T01:27:56;-0.17;76.99
52656;SHT85;35474;51.032;6.998;2023-02-26T01:30:27;-0.13;76.76
52656;SHT85;35474;51.032;6.998;2023-02-26T01:33:01;-0.07;76.80
52656;SHT85;35474;51.032;6.998;2023-02-26T01:35:57;-0.42;77.09
52656;SHT85;35474;51.032;6.998;2023-02-26T01:38:57;-0.21;77.49
52656;SHT85;35474;51.032;6.998;2023-02-26T01:44:45;0.03;77.77
52656;SHT85;35474;51.032;6.998;2023-02-26T01:48:01;0.13;77.65
52656;SHT85;35474;51.032;6.998;2023-02-26T01:50:39;0.21;77.19
52656;SHT85;35474;51.032;6.998;2023-02-26T01:53:23;0.37;76.48
52656;SHT85;35474;51.032;6.998;2023-02-26T01:56:16;0.71;75.03
52656;SHT85;35474;51.032;6.998;2023-02-26T01:58:45;0.73;73.79
52656;SHT85;35474;51.032;6.998;2023-02-26T02:01:13;0.62;74.33
52656;SHT85;35474;51.032;6.998;2023-02-26T02:07:03;0.51;74.87
52656;SHT85;35474;51.032;6.998;2023-02-26T02:09:52;0.38;75.62
52656;SHT85;35474;51.032;6.998;2023-02-26T02:13:04;0.24;75.99
52656;SHT85;35474;51.032;6.998;2023-02-26T02:24:47;0.09;76.91
52656;SHT85;35474;51.032;6.998;2023-02-26T02:28:04;0.13;77.21
52656;SHT85;35474;51.032;6.998;2023-02-26T02:30:53;0.07;77.07
52656;SHT85;35474;51.032;6.998;2023-02-26T02:33:55;0.06;77.44
52656;SHT85;35474;51.032;6.998;2023-02-26T02:37:07;0.23;76.60
52656;SHT85;35474;51.032;6.998;2023-02-26T02:40:01;0.36;77.07
52656;SHT85;35474;51.032;6.998;2023-02-26T02:43:17;0.33;76.37
52656;SHT85;35474;51.032;6.998;2023-02-26T02:45:56;0.21;76.66
52656;SHT85;35474;51.032;6.998;2023-02-26T02:49:06;0.06;76.91
52656;SHT85;35474;51.032;6.998;2023-02-26T02:51:45;0.03;77.14
52656;SHT85;35474;51.032;6.998;2023-02-26T02:54:34;-0.08;77.56
52656;SHT85;35474;51.032;6.998;2023-02-26T02:57:08;-0.06;77.76
52656;SHT85;35474;51.032;6.998;2023-02-26T02:59:56;-0.24;77.74
52656;SHT85;35474;51.032;6.998;2023-02-26T03:05:40;-0.41;78.55
52656;SHT85;35474;51.032;6.998;2023-02-26T03:08:11;-0.49;78.75
52656;SHT85;35474;51.032;6.998;2023-02-26T03:10:57;-0.62;79.19
52656;SHT85;35474;51.032;6.998;2023-02-26T03:13:24;-0.55;79.73
52656;SHT85;35474;51.032;6.998;2023-02-26T03:24:17;-0.77;80.02
52656;SHT85;35474;51.032;6.998;2023-02-26T03:27:22;-0.72;80.08
52656;SHT85;35474;51.032;6.998;2023-02-26T03:30:22;-0.70;79.76
52656;SHT85;35474;51.032;6.998;2023-02-26T03:33:16;-0.83;79.98
52656;SHT85;35474;51.032;6.998;2023-02-26T03:36:09;-0.76;80.16
52656;SHT85;35474;51.032;6.998;2023-02-26T03:42:29;-0.83;79.45
52656;SHT85;35474;51.032;6.998;2023-02-26T03:45:24;-0.77;79.47
52656;SHT85;35474;51.032;6.998;2023-02-26T03:48:04;-0.58;78.93
52656;SHT85;35474;51.032;6.998;2023-02-26T03:50:47;-0.42;77.73
52656;SHT85;35474;51.032;6.998;2023-02-26T03:53:29;-0.37;76.47
52656;SHT85;35474;51.032;6.998;2023-02-26T03:56:09;-0.49;76.45
52656;SHT85;35474;51.032;6.998;2023-02-26T03:58:47;-0.37;75.92
52656;SHT85;35474;51.032;6.998;2023-02-26T04:01:22;-0.42;75.82
52656;SHT85;35474;51.032;6.998;2023-02-26T04:06:26;-0.15;74.79
52656;SHT85;35474;51.032;6.998;2023-02-26T04:09:05;-0.06;74.20
52656;SHT85;35474;51.032;6.998;2023-02-26T04:11:32;-0.22;73.90
52656;SHT85;35474;51.032;6.998;2023-02-26T04:14:04;-0.44;74.68
52656;SHT85;35474;51.032;6.998;2023-02-26T04:16:31;-0.52;74.69
52656;SHT85;35474;51.032;6.998;2023-02-26T04:18:57;-0.69;75.51
52656;SHT85;35474;51.032;6.998;2023-02-26T04:21:27;-0.42;75.49
52656;SHT85;35474;51.032;6.998;2023-02-26T04:23:54;-0.58;75.12
52656;SHT85;35474;51.032;6.998;2023-02-26T04:26:27;-0.66;75.67
52656;SHT85;35474;51.032;6.998;2023-02-26T04:28:54;-0.89;75.71
52656;SHT85;35474;51.032;6.998;2023-02-26T04:31:24;-0.79;76.66
52656;SHT85;35474;51.032;6.998;2023-02-26T04:33:55;-0.70;77.79
52656;SHT85;35474;51.032;6.998;2023-02-26T04:36:25;-0.56;76.77
52656;SHT85;35474;51.032;6.998;2023-02-26T04:38:52;-0.46;75.89
52656;SHT85;35474;51.032;6.998;2023-02-26T04:41:20;-0.49;75.58
52656;SHT85;35474;51.032;6.998;2023-02-26T04:43:47;-0.29;74.88
52656;SHT85;35474;51.032;6.998;2023-02-26T04:46:14;-0.18;73.93
52656;SHT85;35474;51.032;6.998;2023-02-26T04:48:47;-0.29;74.06
52656;SHT85;35474;51.032;6.998;2023-02-26T04:51:14;-0.45;74.60
52656;SHT85;35474;51.032;6.998;2023-02-26T04:53:45;-0.56;74.92
52656;SHT85;35474;51.032;6.998;2023-02-26T04:56:12;-0.56;75.08
52656;SHT85;35474;51.032;6.998;2023-02-26T04:58:42;-0.62;74.88
52656;SHT85;35474;51.032;6.998;2023-02-26T05:01:12;-0.70;75.33
52656;SHT85;35474;51.032;6.998;2023-02-26T05:03:39;-0.62;75.22
52656;SHT85;35474;51.032;6.998;2023-02-26T05:06:06;-0.75;75.00
52656;SHT85;35474;51.032;6.998;2023-02-26T05:08:36;-0.83;75.36
52656;SHT85;35474;51.032;6.998;2023-02-26T05:11:10;-0.70;75.97
52656;SHT85;35474;51.032;6.998;2023-02-26T05:13:37;-0.85;75.70
52656;SHT85;35474;51.032;6.998;2023-02-26T05:16:05;-0.90;75.89
52656;SHT85;35474;51.032;6.998;2023-02-26T05:18:38;-0.75;75.41
52656;SHT85;35474;51.032;6.998;2023-02-26T05:21:05;-0.75;75.20
52656;SHT85;35474;51.032;6.998;2023-02-26T05:23:32;-0.83;75.35
52656;SHT85;35474;51.032;6.998;2023-02-26T05:26:01;-0.87;75.78
52656;SHT85;35474;51.032;6.998;2023-02-26T05:28:38;-0.83;75.83
52656;SHT85;35474;51.032;6.998;2023-02-26T05:31:08;-0.73;75.84
52656;SHT85;35474;51.032;6.998;2023-02-26T05:33:35;-0.93;75.56
52656;SHT85;35474;51.032;6.998;2023-02-26T05:36:02;-0.89;76.33
52656;SHT85;35474;51.032;6.998;2023-02-26T05:38:30;-0.89;76.21
52656;SHT85;35474;51.032;6.998;2023-02-26T05:40:57;-0.86;76.13
52656;SHT85;35474;51.032;6.998;2023-02-26T05:43:25;-1.03;76.60
52656;SHT85;35474;51.032;6.998;2023-02-26T05:45:52;-0.73;76.16
52656;SHT85;35474;51.032;6.998;2023-02-26T05:48:21;-0.95;76.28
52656;SHT85;35474;51.032;6.998;2023-02-26T05:50:48;-1.11;76.77
52656;SHT85;35474;51.032;6.998;2023-02-26T05:53:16;-1.06;77.31
52656;SHT85;35474;51.032;6.998;2023-02-26T05:55:46;-0.99;77.10
52656;SHT85;35474;51.032;6.998;2023-02-26T05:58:18;-1.04;76.98
52656;SHT85;35474;51.032;6.998;2023-02-26T06:00:45;-1.00;77.15
52656;SHT85;35474;51.032;6.998;2023-02-26T06:03:13;-1.04;77.31
52656;SHT85;35474;51.032;6.998;2023-02-26T06:05:52;-1.11;77.24
52656;SHT85;35474;51.032;6.998;2023-02-26T06:15:54;-1.11;78.19
52656;SHT85;35474;51.032;6.998;2023-02-26T06:18:30;-1.04;77.78
52656;SHT85;35474;51.032;6.998;2023-02-26T06:21:16;-1.14;77.67
52656;SHT85;35474;51.032;6.998;2023-02-26T06:23:46;-1.14;78.22
52656;SHT85;35474;51.032;6.998;2023-02-26T06:26:24;-1.24;78.22
52656;SHT85;35474;51.032;6.998;2023-02-26T06:29:09;-1.17;78.39
52656;SHT85;35474;51.032;6.998;2023-02-26T06:31:49;-1.21;78.43
52656;SHT85;35474;51.032;6.998;2023-02-26T06:34:32;-1.06;78.18
52656;SHT85;35474;51.032;6.998;2023-02-26T06:37:00;-1.13;77.96
52656;SHT85;35474;51.032;6.998;2023-02-26T06:39:30;-1.07;78.06
52656;SHT85;35474;51.032;6.998;2023-02-26T06:41:57;-0.97;77.83
52656;SHT85;35474;51.032;6.998;2023-02-26T06:44:30;-0.80;77.53
52656;SHT85;35474;51.032;6.998;2023-02-26T06:47:05;-0.83;76.91
52656;SHT85;35474;51.032;6.998;2023-02-26T06:49:38;-0.64;76.94
52656;SHT85;35474;51.032;6.998;2023-02-26T06:52:06;-0.66;76.57
52656;SHT85;35474;51.032;6.998;2023-02-26T06:54:33;-0.82;76.63
52656;SHT85;35474;51.032;6.998;2023-02-26T06:59:42;-0.79;77.28
52656;SHT85;35474;51.032;6.998;2023-02-26T07:02:27;-0.65;77.26
52656;SHT85;35474;51.032;6.998;2023-02-26T07:05:07;-0.34;76.62
52656;SHT85;35474;51.032;6.998;2023-02-26T07:07:34;0.02;75.38
52656;SHT85;35474;51.032;6.998;2023-02-26T07:10:02;0.48;74.22
52656;SHT85;35474;51.032;6.998;2023-02-26T07:12:29;0.81;72.60
52656;SHT85;35474;51.032;6.998;2023-02-26T07:14:56;1.24;70.78
52656;SHT85;35474;51.032;6.998;2023-02-26T07:17:25;1.61;69.62
52656;SHT85;35474;51.032;6.998;2023-02-26T07:19:52;1.65;69.01
52656;SHT85;35474;51.032;6.998;2023-02-26T07:22:19;2.22;67.72
52656;SHT85;35474;51.032;6.998;2023-02-26T07:24:47;2.26;67.50
52656;SHT85;35474;51.032;6.998;2023-02-26T07:27:15;2.95;65.42
52656;SHT85;35474;51.032;6.998;2023-02-26T07:32:33;3.42;63.26
52656;SHT85;35474;51.032;6.998;2023-02-26T07:35:05;3.08;63.57
52656;SHT85;35474;51.032;6.998;2023-02-26T07:37:33;3.40;62.51
52656;SHT85;35474;51.032;6.998;2023-02-26T07:40:03;2.62;64.37
52656;SHT85;35474;51.032;6.998;2023-02-26T07:42:32;3.40;64.84
52656;SHT85;35474;51.032;6.998;2023-02-26T07:45:00;3.44;62.97
52656;SHT85;35474;51.032;6.998;2023-02-26T07:47:36;3.01;63.05
52656;SHT85;35474;51.032;6.998;2023-02-26T07:50:03;2.78;65.19
52656;SHT85;35474;51.032;6.998;2023-02-26T07:52:30;2.46;65.08
52656;SHT85;35474;51.032;6.998;2023-02-26T07:55:02;1.82;67.18
52656;SHT85;35474;51.032;6.998;2023-02-26T07:57:29;1.67;68.24
52656;SHT85;35474;51.032;6.998;2023-02-26T07:59:56;1.39;68.58
52656;SHT85;35474;51.032;6.998;2023-02-26T08:02:22;1.34;69.58
52656;SHT85;35474;51.032;6.998;2023-02-26T08:04:51;2.44;67.15
52656;SHT85;35474;51.032;6.998;2023-02-26T08:07:18;2.57;64.89
52656;SHT85;35474;51.032;6.998;2023-02-26T08:09:46;2.84;65.72
52656;SHT85;35474;51.032;6.998;2023-02-26T08:12:53;4.01;61.45
52656;SHT85;35474;51.032;6.998;2023-02-26T08:15:23;3.84;61.27
52656;SHT85;35474;51.032;6.998;2023-02-26T08:18:17;3.77;61.10
52656;SHT85;35474;51.032;6.998;2023-02-26T08:24:48;5.07;58.31
52656;SHT85;35474;51.032;6.998;2023-02-26T08:27:52;5.23;57.37
52656;SHT85;35474;51.032;6.998;2023-02-26T08:30:19;4.63;57.53
52656;SHT85;35474;51.032;6.998;2023-02-26T08:32:45;5.11;57.20
52656;SHT85;35474;51.032;6.998;2023-02-26T08:35:12;5.21;56.66
52656;SHT85;35474;51.032;6.998;2023-02-26T08:37:39;5.38;56.29
52656;SHT85;35474;51.032;6.998;2023-02-26T08:40:06;5.30;56.40
52656;SHT85;35474;51.032;6.998;2023-02-26T08:42:34;6.13;54.83
52656;SHT85;35474;51.032;6.998;2023-02-26T08:45:01;6.09;54.32
52656;SHT85;35474;51.032;6.998;2023-02-26T08:47:28;5.69;54.33
52656;SHT85;35474;51.032;6.998;2023-02-26T08:49:55;5.79;53.13
52656;SHT85;35474;51.032;6.998;2023-02-26T08:52:22;6.02;52.97
52656;SHT85;35474;51.032;6.998;2023-02-26T08:54:49;6.09;52.18
52656;SHT85;35474;51.032;6.998;2023-02-26T08:57:16;5.97;52.85
52656;SHT85;35474;51.032;6.998;2023-02-26T08:59:42;6.44;51.91
52656;SHT85;35474;51.032;6.998;2023-02-26T09:02:10;5.85;50.83
52656;SHT85;35474;51.032;6.998;2023-02-26T09:04:37;5.73;52.71
52656;SHT85;35474;51.032;6.998;2023-02-26T09:07:04;6.79;52.29
52656;SHT85;35474;51.032;6.998;2023-02-26T09:09:31;6.18;52.73
52656;SHT85;35474;51.032;6.998;2023-02-26T09:11:57;6.67;50.71
52656;SHT85;35474;51.032;6.998;2023-02-26T09:14:24;6.06;54.00
52656;SHT85;35474;51.032;6.998;2023-02-26T09:16:51;6.28;51.97
52656;SHT85;35474;51.032;6.998;2023-02-26T09:19:17;6.85;51.14
52656;SHT85;35474;51.032;6.998;2023-02-26T09:21:44;6.88;49.77
52656;SHT85;35474;51.032;6.998;2023-02-26T09:24:10;5.90;51.02
52656;SHT85;35474;51.032;6.998;2023-02-26T09:26:37;5.17;53.23
52656;SHT85;35474;51.032;6.998;2023-02-26T09:29:03;5.44;53.33
52656;SHT85;35474;51.032;6.998;2023-02-26T09:31:30;5.13;53.50
52656;SHT85;35474;51.032;6.998;2023-02-26T09:33:57;5.20;53.26
52656;SHT85;35474;51.032;6.998;2023-02-26T09:36:24;5.89;52.55
52656;SHT85;35474;51.032;6.998;2023-02-26T09:38:51;6.25;49.56
52656;SHT85;35474;51.032;6.998;2023-02-26T09:41:22;5.14;51.61
52656;SHT85;35474;51.032;6.998;2023-02-26T09:52:17;4.67;51.17
52656;SHT85;35474;51.032;6.998;2023-02-26T09:55:23;4.31;52.89
52656;SHT85;35474;51.032;6.998;2023-02-26T09:57:58;4.01;53.36
52656;SHT85;35474;51.032;6.998;2023-02-26T10:06:24;4.39;52.20
52656;SHT85;35474;51.032;6.998;2023-02-26T10:09:04;3.55;52.87
52656;SHT85;35474;51.032;6.998;2023-02-26T10:14:29;4.50;51.45
52656;SHT85;35474;51.032;6.998;2023-02-26T10:17:11;5.42;49.26
52656;SHT85;35474;51.032;6.998;2023-02-26T10:19:42;5.31;47.94
52656;SHT85;35474;51.032;6.998;2023-02-26T10:22:19;4.46;50.43
52656;SHT85;35474;51.032;6.998;2023-02-26T10:25:36;5.11;50.29
52656;SHT85;35474;51.032;6.998;2023-02-26T10:38:48;4.27;51.00
52656;SHT85;35474;51.032;6.998;2023-02-26T10:41:19;4.15;51.57
52656;SHT85;35474;51.032;6.998;2023-02-26T10:43:52;3.98;51.38
52656;SHT85;35474;51.032;6.998;2023-02-26T10:49:07;4.55;51.07
52656;SHT85;35474;51.032;6.998;2023-02-26T10:51:39;4.49;51.10
52656;SHT85;35474;51.032;6.998;2023-02-26T10:54:13;4.65;50.70
52656;SHT85;35474;51.032;6.998;2023-02-26T10:56:46;4.32;50.09
52656;SHT85;35474;51.032;6.998;2023-02-26T10:59:13;4.69;49.35
52656;SHT85;35474;51.032;6.998;2023-02-26T11:01:42;5.17;47.89
52656;SHT85;35474;51.032;6.998;2023-02-26T11:04:13;5.99;47.94
52656;SHT85;35474;51.032;6.998;2023-02-26T11:06:52;6.33;45.80
52656;SHT85;35474;51.032;6.998;2023-02-26T11:09:25;7.71;43.24
52656;SHT85;35474;51.032;6.998;2023-02-26T11:14:39;7.54;42.13
52656;SHT85;35474;51.032;6.998;2023-02-26T11:17:18;8.06;41.95
52656;SHT85;35474;51.032;6.998;2023-02-26T11:19:52;7.92;42.03
52656;SHT85;35474;51.032;6.998;2023-02-26T11:22:28;8.43;40.64
52656;SHT85;35474;51.032;6.998;2023-02-26T11:24:58;9.43;39.83
52656;SHT85;35474;51.032;6.998;2023-02-26T11:27:34;10.08;37.82
52656;SHT85;35474;51.032;6.998;2023-02-26T11:30:04;10.32;36.41
52656;SHT85;35474;51.032;6.998;2023-02-26T11:32:39;10.41;35.41
52656;SHT85;35474;51.032;6.998;2023-02-26T11:35:07;10.45;35.27
52656;SHT85;35474;51.032;6.998;2023-02-26T11:37:35;10.38;35.68
52656;SHT85;35474;51.032;6.998;2023-02-26T11:40:31;9.84;36.46
52656;SHT85;35474;51.032;6.998;2023-02-26T11:42:54;10.07;36.35
52656;SHT85;35474;51.032;6.998;2023-02-26T11:45:24;9.31;38.44
52656;SHT85;35474;51.032;6.998;2023-02-26T11:47:56;9.57;36.86
52656;SHT85;35474;51.032;6.998;2023-02-26T11:50:30;9.60;34.84
52656;SHT85;35474;51.032;6.998;2023-02-26T11:53:03;9.43;36.21
52656;SHT85;35474;51.032;6.998;2023-02-26T11:55:35;10.08;35.06
52656;SHT85;35474;51.032;6.998;2023-02-26T11:58:14;10.38;34.22
52656;SHT85;35474;51.032;6.998;2023-02-26T12:00:44;10.44;34.38
52656;SHT85;35474;51.032;6.998;2023-02-26T12:03:15;10.48;34.95
52656;SHT85;35474;51.032;6.998;2023-02-26T12:05:44;10.02;35.23
52656;SHT85;35474;51.032;6.998;2023-02-26T12:08:30;10.05;34.66
52656;SHT85;35474;51.032;6.998;2023-02-26T12:11:07;9.56;36.31
52656;SHT85;35474;51.032;6.998;2023-02-26T12:16:37;9.40;35.39
52656;SHT85;35474;51.032;6.998;2023-02-26T12:24:21;9.79;35.43
52656;SHT85;35474;51.032;6.998;2023-02-26T12:26:58;9.28;35.91
52656;SHT85;35474;51.032;6.998;2023-02-26T12:40:25;9.83;35.58
52656;SHT85;35474;51.032;6.998;2023-02-26T12:43:08;10.70;34.48
52656;SHT85;35474;51.032;6.998;2023-02-26T12:51:14;10.39;34.02
52656;SHT85;35474;51.032;6.998;2023-02-26T13:04:44;10.28;33.81
52656;SHT85;35474;51.032;6.998;2023-02-26T13:10:20;11.10;33.32
52656;SHT85;35474;51.032;6.998;2023-02-26T13:15:47;10.32;33.50
52656;SHT85;35474;51.032;6.998;2023-02-26T13:21:08;9.46;36.37
52656;SHT85;35474;51.032;6.998;2023-02-26T13:23:45;9.79;35.32
52656;SHT85;35474;51.032;6.998;2023-02-26T13:26:16;9.84;35.29
52656;SHT85;35474;51.032;6.998;2023-02-26T13:28:47;9.33;34.79
52656;SHT85;35474;51.032;6.998;2023-02-26T13:33:53;9.79;34.53
52656;SHT85;35474;51.032;6.998;2023-02-26T13:36:21;9.84;34.37
52656;SHT85;35474;51.032;6.998;2023-02-26T13:44:26;10.14;35.28
52656;SHT85;35474;51.032;6.998;2023-02-26T13:52:54;10.75;34.05
52656;SHT85;35474;51.032;6.998;2023-02-26T13:55:36;8.91;36.75
52656;SHT85;35474;51.032;6.998;2023-02-26T14:01:03;8.03;38.91
52656;SHT85;35474;51.032;6.998;2023-02-26T14:03:52;9.00;36.33
52656;SHT85;35474;51.032;6.998;2023-02-26T14:06:41;9.46;36.34
52656;SHT85;35474;51.032;6.998;2023-02-26T14:14:36;10.12;34.86
52656;SHT85;35474;51.032;6.998;2023-02-26T14:19:41;10.21;34.21
52656;SHT85;35474;51.032;6.998;2023-02-26T14:22:20;9.93;34.17
52656;SHT85;35474;51.032;6.998;2023-02-26T14:24:55;9.94;34.41
52656;SHT85;35474;51.032;6.998;2023-02-26T14:27:34;9.64;34.71
52656;SHT85;35474;51.032;6.998;2023-02-26T14:32:48;9.71;34.52
52656;SHT85;35474;51.032;6.998;2023-02-26T14:37:57;9.95;32.93
52656;SHT85;35474;51.032;6.998;2023-02-26T14:40:33;10.07;32.24
52656;SHT85;35474;51.032;6.998;2023-02-26T14:43:05;9.84;33.46
52656;SHT85;35474;51.032;6.998;2023-02-26T14:45:40;10.05;33.00
52656;SHT85;35474;51.032;6.998;2023-02-26T14:48:13;9.71;33.52
52656;SHT85;35474;51.032;6.998;2023-02-26T14:56:51;9.64;34.51
52656;SHT85;35474;51.032;6.998;2023-02-26T15:04:50;9.36;35.40
52656;SHT85;35474;51.032;6.998;2023-02-26T15:07:47;8.28;35.78
52656;SHT85;35474;51.032;6.998;2023-02-26T15:15:41;9.33;33.52
52656;SHT85;35474;51.032;6.998;2023-02-26T15:23:56;9.50;35.35
52656;SHT85;35474;51.032;6.998;2023-02-26T15:26:26;9.47;34.80
52656;SHT85;35474;51.032;6.998;2023-02-26T15:29:06;9.52;34.53
52656;SHT85;35474;51.032;6.998;2023-02-26T15:31:41;8.40;36.23
52656;SHT85;35474;51.032;6.998;2023-02-26T15:34:10;8.84;36.24
52656;SHT85;35474;51.032;6.998;2023-02-26T15:36:39;9.02;36.07
52656;SHT85;35474;51.032;6.998;2023-02-26T15:39:11;8.43;36.55
52656;SHT85;35474;51.032;6.998;2023-02-26T15:41:47;9.05;35.91
52656;SHT85;35474;51.032;6.998;2023-02-26T15:44:17;8.74;35.38
52656;SHT85;35474;51.032;6.998;2023-02-26T15:46:49;8.57;35.53
52656;SHT85;35474;51.032;6.998;2023-02-26T15:49:26;8.16;36.50
52656;SHT85;35474;51.032;6.998;2023-02-26T15:51:55;8.50;36.45
52656;SHT85;35474;51.032;6.998;2023-02-26T15:54:24;8.26;36.72
52656;SHT85;35474;51.032;6.998;2023-02-26T15:56:59;7.91;37.20
52656;SHT85;35474;51.032;6.998;2023-02-26T15:59:27;8.12;37.30
52656;SHT85;35474;51.032;6.998;2023-02-26T16:02:01;8.36;36.72
52656;SHT85;35474;51.032;6.998;2023-02-26T16:04:28;7.88;37.96
52656;SHT85;35474;51.032;6.998;2023-02-26T16:06:56;8.03;37.32
52656;SHT85;35474;51.032;6.998;2023-02-26T16:09:27;7.88;37.48
52656;SHT85;35474;51.032;6.998;2023-02-26T16:12:16;7.65;38.14
52656;SHT85;35474;51.032;6.998;2023-02-26T16:14:48;7.67;38.05
52656;SHT85;35474;51.032;6.998;2023-02-26T16:17:26;7.35;38.89
52656;SHT85;35474;51.032;6.998;2023-02-26T16:19:59;7.51;39.18
52656;SHT85;35474;51.032;6.998;2023-02-26T16:22:33;7.60;38.55
52656;SHT85;35474;51.032;6.998;2023-02-26T16:25:11;7.44;38.92
52656;SHT85;35474;51.032;6.998;2023-02-26T16:27:46;7.17;39.35
52656;SHT85;35474;51.032;6.998;2023-02-26T16:30:18;7.22;39.55
52656;SHT85;35474;51.032;6.998;2023-02-26T16:32:57;6.52;39.96
52656;SHT85;35474;51.032;6.998;2023-02-26T16:35:27;6.11;41.05
52656;SHT85;35474;51.032;6.998;2023-02-26T16:38:03;6.00;42.22
52656;SHT85;35474;51.032;6.998;2023-02-26T16:40:39;5.56;42.66
52656;SHT85;35474;51.032;6.998;2023-02-26T16:45:55;5.51;44.11
52656;SHT85;35474;51.032;6.998;2023-02-26T16:48:26;5.34;44.65
52656;SHT85;35474;51.032;6.998;2023-02-26T16:50:59;5.30;44.91
52656;SHT85;35474;51.032;6.998;2023-02-26T16:53:40;5.04;45.28
52656;SHT85;35474;51.032;6.998;2023-02-26T16:56:11;4.83;46.23
52656;SHT85;35474;51.032;6.998;2023-02-26T16:58:46;4.73;46.53
52656;SHT85;35474;51.032;6.998;2023-02-26T17:01:19;4.41;47.34
52656;SHT85;35474;51.032;6.998;2023-02-26T17:03:48;4.31;47.83
52656;SHT85;35474;51.032;6.998;2023-02-26T17:06:24;4.29;48.00
52656;SHT85;35474;51.032;6.998;2023-02-26T17:08:56;4.08;48.87
52656;SHT85;35474;51.032;6.998;2023-02-26T17:11:26;4.17;48.62
52656;SHT85;35474;51.032;6.998;2023-02-26T17:14:03;3.98;48.39
52656;SHT85;35474;51.032;6.998;2023-02-26T17:16:48;3.99;48.72
52656;SHT85;35474;51.032;6.998;2023-02-26T17:19:16;3.94;49.12
52656;SHT85;35474;51.032;6.998;2023-02-26T17:21:53;3.88;49.08
52656;SHT85;35474;51.032;6.998;2023-02-26T17:24:25;3.70;49.10
52656;SHT85;35474;51.032;6.998;2023-02-26T17:27:02;3.57;49.92
52656;SHT85;35474;51.032;6.998;2023-02-26T17:29:35;3.48;50.17
52656;SHT85;35474;51.032;6.998;2023-02-26T17:32:04;3.56;50.66
52656;SHT85;35474;51.032;6.998;2023-02-26T17:34:32;3.46;50.62
52656;SHT85;35474;51.032;6.998;2023-02-26T17:36:59;3.46;50.93
52656;SHT85;35474;51.032;6.998;2023-02-26T17:39:30;3.25;51.08
52656;SHT85;35474;51.032;6.998;2023-02-26T17:41:57;3.16;51.89
52656;SHT85;35474;51.032;6.998;2023-02-26T17:44:23;3.25;51.81
52656;SHT85;35474;51.032;6.998;2023-02-26T17:46:51;3.33;51.27
52656;SHT85;35474;51.032;6.998;2023-02-26T17:49:18;3.29;51.32
52656;SHT85;35474;51.032;6.998;2023-02-26T17:51:44;3.20;51.28
52656;SHT85;35474;51.032;6.998;2023-02-26T17:54:11;3.07;51.73
52656;SHT85;35474;51.032;6.998;2023-02-26T17:56:38;3.09;52.43
52656;SHT85;35474;51.032;6.998;2023-02-26T17:59:04;3.07;52.15
52656;SHT85;35474;51.032;6.998;2023-02-26T18:01:32;3.15;52.65
52656;SHT85;35474;51.032;6.998;2023-02-26T18:03:58;3.04;52.33
52656;SHT85;35474;51.032;6.998;2023-02-26T18:06:26;2.97;52.37
52656;SHT85;35474;51.032;6.998;2023-02-26T18:08:56;2.91;52.50
52656;SHT85;35474;51.032;6.998;2023-02-26T18:11:22;3.04;52.36
52656;SHT85;35474;51.032;6.998;2023-02-26T18:13:51;2.99;52.50
52656;SHT85;35474;51.032;6.998;2023-02-26T18:16:21;3.02;52.40
52656;SHT85;35474;51.032;6.998;2023-02-26T18:18:51;2.85;52.48
52656;SHT85;35474;51.032;6.998;2023-02-26T18:21:19;2.71;52.94
52656;SHT85;35474;51.032;6.998;2023-02-26T18:23:45;2.84;53.07
52656;SHT85;35474;51.032;6.998;2023-02-26T18:26:13;2.71;52.66
52656;SHT85;35474;51.032;6.998;2023-02-26T18:28:42;2.54;53.39
52656;SHT85;35474;51.032;6.998;2023-02-26T18:31:08;2.70;53.46
52656;SHT85;35474;51.032;6.998;2023-02-26T18:33:35;2.44;53.38
52656;SHT85;35474;51.032;6.998;2023-02-26T18:36:06;2.47;53.42
52656;SHT85;35474;51.032;6.998;2023-02-26T18:38:37;2.61;53.52
52656;SHT85;35474;51.032;6.998;2023-02-26T18:41:04;2.56;53.31
52656;SHT85;35474;51.032;6.998;2023-02-26T18:43:30;2.51;53.28
52656;SHT85;35474;51.032;6.998;2023-02-26T18:45:57;2.37;53.46
52656;SHT85;35474;51.032;6.998;2023-02-26T18:48:26;2.36;53.84
52656;SHT85;35474;51.032;6.998;2023-02-26T18:50:53;2.40;53.66
52656;SHT85;35474;51.032;6.998;2023-02-26T18:53:24;2.29;53.79
52656;SHT85;35474;51.032;6.998;2023-02-26T18:57:35;2.29;54.56
52656;SHT85;35474;51.032;6.998;2023-02-26T19:00:02;2.20;54.66
52656;SHT85;35474;51.032;6.998;2023-02-26T19:02:29;2.15;54.81
52656;SHT85;35474;51.032;6.998;2023-02-26T19:04:56;2.12;55.18
52656;SHT85;35474;51.032;6.998;2023-02-26T19:07:23;2.01;55.36
52656;SHT85;35474;51.032;6.998;2023-02-26T19:09:49;1.99;55.97
52656;SHT85;35474;51.032;6.998;2023-02-26T19:12:16;2.06;56.27
52656;SHT85;35474;51.032;6.998;2023-02-26T19:14:46;2.08;56.22
52656;SHT85;35474;51.032;6.998;2023-02-26T19:17:15;1.91;55.85
52656;SHT85;35474;51.032;6.998;2023-02-26T19:19:41;1.94;56.10
52656;SHT85;35474;51.032;6.998;2023-02-26T19:22:09;1.86;56.93
52656;SHT85;35474;51.032;6.998;2023-02-26T19:24:36;1.95;57.26
52656;SHT85;35474;51.032;6.998;2023-02-26T19:27:03;1.89;56.96
52656;SHT85;35474;51.032;6.998;2023-02-26T19:29:29;1.83;57.07
52656;SHT85;35474;51.032;6.998;2023-02-26T19:31:59;2.02;57.33
52656;SHT85;35474;51.032;6.998;2023-02-26T19:34:26;1.82;57.25
52656;SHT85;35474;51.032;6.998;2023-02-26T19:36:52;1.72;57.25